sensor_id;sensor_type;location;lat;lon;timestamp;P1;durP1;ratioP1;P2;durP2;ratioP2
59294;SDS011;45067;44.654;20.200;2023-07-08T00:04:13;10.80;;;6.63;;
59294;SDS011;45067;44.654;20.200;2023-07-08T00:06:39;11.38;;;6.72;;
59294;SDS011;45067;44.654;20.200;2023-07-08T00:09:09;11.55;;;7.10;;
59294;SDS011;45067;44.654;20.200;2023-07-08T00:11:37;12.43;;;6.65;;
59294;SDS011;45067;44.654;20.200;2023-07-08T00:14:03;9.90;;;6.70;;
59294;SDS011;45067;44.654;20.200;2023-07-08T00:16:29;14.23;;;6.88;;
59294;SDS011;45067;44.654;20.200;2023-07-08T00:18:55;13.02;;;7.05;;
59294;SDS011;45067;44.654;20.200;2023-07-08T00:21:21;11.95;;;7.32;;
59294;SDS011;45067;44.654;20.200;2023-07-08T00:23:48;9.57;;;6.68;;
59294;SDS011;45067;44.654;20.200;2023-07-08T00:26:27;14.00;;;6.75;;
59294;SDS011;45067;44.654;20.200;2023-07-08T00:28:54;11.03;;;7.07;;
59294;SDS011;45067;44.654;20.200;2023-07-08T00:34:24;9.52;;;6.43;;
59294;SDS011;45067;44.654;20.200;2023-07-08T00:36:50;14.05;;;7.53;;
59294;SDS011;45067;44.654;20.200;2023-07-08T00:39:16;15.65;;;7.28;;
59294;SDS011;45067;44.654;20.200;2023-07-08T00:41:42;11.48;;;6.88;;
59294;SDS011;45067;44.654;20.200;2023-07-08T00:44:12;13.32;;;7.18;;
59294;SDS011;45067;44.654;20.200;2023-07-08T00:51:49;11.02;;;6.80;;
59294;SDS011;45067;44.654;20.200;2023-07-08T00:54:16;14.43;;;7.22;;
59294;SDS011;45067;44.654;20.200;2023-07-08T00:56:44;10.18;;;6.53;;
59294;SDS011;45067;44.654;20.200;2023-07-08T00:59:14;11.30;;;6.68;;
59294;SDS011;45067;44.654;20.200;2023-07-08T01:02:03;9.93;;;7.10;;
59294;SDS011;45067;44.654;20.200;2023-07-08T01:04:34;16.63;;;7.05;;
59294;SDS011;45067;44.654;20.200;2023-07-08T01:07:03;11.18;;;6.75;;
59294;SDS011;45067;44.654;20.200;2023-07-08T01:09:33;15.45;;;7.18;;
59294;SDS011;45067;44.654;20.200;2023-07-08T01:12:01;11.43;;;7.25;;
59294;SDS011;45067;44.654;20.200;2023-07-08T01:14:29;14.93;;;7.18;;
59294;SDS011;45067;44.654;20.200;2023-07-08T01:16:57;12.18;;;7.63;;
59294;SDS011;45067;44.654;20.200;2023-07-08T01:19:24;16.48;;;7.88;;
59294;SDS011;45067;44.654;20.200;2023-07-08T01:24:24;15.63;;;7.40;;
59294;SDS011;45067;44.654;20.200;2023-07-08T01:26:51;15.73;;;8.43;;
59294;SDS011;45067;44.654;20.200;2023-07-08T01:29:17;11.00;;;7.78;;
59294;SDS011;45067;44.654;20.200;2023-07-08T01:31:43;12.98;;;7.35;;
59294;SDS011;45067;44.654;20.200;2023-07-08T01:36:40;14.63;;;7.25;;
59294;SDS011;45067;44.654;20.200;2023-07-08T01:39:10;9.63;;;7.20;;
59294;SDS011;45067;44.654;20.200;2023-07-08T01:41:37;10.23;;;6.90;;
59294;SDS011;45067;44.654;20.200;2023-07-08T01:44:03;14.02;;;7.80;;
59294;SDS011;45067;44.654;20.200;2023-07-08T01:49:26;14.80;;;7.82;;
59294;SDS011;45067;44.654;20.200;2023-07-08T01:51:53;14.95;;;7.85;;
59294;SDS011;45067;44.654;20.200;2023-07-08T01:54:19;14.30;;;7.97;;
59294;SDS011;45067;44.654;20.200;2023-07-08T01:56:45;12.48;;;7.65;;
59294;SDS011;45067;44.654;20.200;2023-07-08T01:59:11;13.30;;;7.20;;
59294;SDS011;45067;44.654;20.200;2023-07-08T02:04:41;15.32;;;7.32;;
59294;SDS011;45067;44.654;20.200;2023-07-08T02:07:07;13.55;;;8.10;;
59294;SDS011;45067;44.654;20.200;2023-07-08T02:09:33;12.57;;;7.40;;
59294;SDS011;45067;44.654;20.200;2023-07-08T02:11:59;15.35;;;7.68;;
59294;SDS011;45067;44.654;20.200;2023-07-08T02:14:25;12.95;;;8.25;;
59294;SDS011;45067;44.654;20.200;2023-07-08T02:16:51;13.15;;;8.13;;
59294;SDS011;45067;44.654;20.200;2023-07-08T02:19:18;13.10;;;7.47;;
59294;SDS011;45067;44.654;20.200;2023-07-08T02:21:45;15.57;;;7.88;;
59294;SDS011;45067;44.654;20.200;2023-07-08T02:24:11;14.70;;;7.80;;
59294;SDS011;45067;44.654;20.200;2023-07-08T02:26:37;11.85;;;8.07;;
59294;SDS011;45067;44.654;20.200;2023-07-08T02:29:03;15.10;;;7.70;;
59294;SDS011;45067;44.654;20.200;2023-07-08T02:31:45;13.32;;;7.68;;
59294;SDS011;45067;44.654;20.200;2023-07-08T02:34:11;14.75;;;7.50;;
59294;SDS011;45067;44.654;20.200;2023-07-08T02:36:37;12.70;;;7.18;;
59294;SDS011;45067;44.654;20.200;2023-07-08T02:39:03;12.05;;;7.53;;
59294;SDS011;45067;44.654;20.200;2023-07-08T02:41:30;11.25;;;7.00;;
59294;SDS011;45067;44.654;20.200;2023-07-08T02:43:56;13.43;;;7.18;;
59294;SDS011;45067;44.654;20.200;2023-07-08T02:46:32;15.40;;;7.25;;
59294;SDS011;45067;44.654;20.200;2023-07-08T02:48:58;13.43;;;7.10;;
59294;SDS011;45067;44.654;20.200;2023-07-08T02:51:24;11.82;;;7.03;;
59294;SDS011;45067;44.654;20.200;2023-07-08T02:53:50;18.85;;;8.55;;
59294;SDS011;45067;44.654;20.200;2023-07-08T02:56:16;12.80;;;8.00;;
59294;SDS011;45067;44.654;20.200;2023-07-08T02:58:42;12.82;;;7.78;;
59294;SDS011;45067;44.654;20.200;2023-07-08T03:01:08;10.98;;;7.03;;
59294;SDS011;45067;44.654;20.200;2023-07-08T03:03:34;11.77;;;7.07;;
59294;SDS011;45067;44.654;20.200;2023-07-08T03:06:02;14.45;;;7.32;;
59294;SDS011;45067;44.654;20.200;2023-07-08T03:08:28;15.43;;;8.10;;
59294;SDS011;45067;44.654;20.200;2023-07-08T03:10:55;25.25;;;8.57;;
59294;SDS011;45067;44.654;20.200;2023-07-08T03:13:22;17.42;;;8.02;;
59294;SDS011;45067;44.654;20.200;2023-07-08T03:15:48;12.07;;;7.45;;
59294;SDS011;45067;44.654;20.200;2023-07-08T03:18:14;12.15;;;8.15;;
59294;SDS011;45067;44.654;20.200;2023-07-08T03:20:40;14.38;;;7.97;;
59294;SDS011;45067;44.654;20.200;2023-07-08T03:23:09;12.70;;;8.25;;
59294;SDS011;45067;44.654;20.200;2023-07-08T03:25:35;13.93;;;7.68;;
59294;SDS011;45067;44.654;20.200;2023-07-08T03:28:02;17.02;;;8.15;;
59294;SDS011;45067;44.654;20.200;2023-07-08T03:30:31;12.82;;;6.90;;
59294;SDS011;45067;44.654;20.200;2023-07-08T03:32:57;11.18;;;7.47;;
59294;SDS011;45067;44.654;20.200;2023-07-08T03:35:23;17.20;;;10.30;;
59294;SDS011;45067;44.654;20.200;2023-07-08T03:37:50;25.15;;;16.63;;
59294;SDS011;45067;44.654;20.200;2023-07-08T03:40:16;21.70;;;13.85;;
59294;SDS011;45067;44.654;20.200;2023-07-08T03:42:42;23.75;;;16.30;;
59294;SDS011;45067;44.654;20.200;2023-07-08T03:45:08;25.77;;;16.08;;
59294;SDS011;45067;44.654;20.200;2023-07-08T03:50:34;26.52;;;15.70;;
59294;SDS011;45067;44.654;20.200;2023-07-08T03:53:03;21.52;;;13.82;;
59294;SDS011;45067;44.654;20.200;2023-07-08T03:55:32;17.58;;;12.93;;
59294;SDS011;45067;44.654;20.200;2023-07-08T03:57:58;21.90;;;14.45;;
59294;SDS011;45067;44.654;20.200;2023-07-08T04:00:24;19.52;;;12.23;;
59294;SDS011;45067;44.654;20.200;2023-07-08T04:02:50;23.52;;;13.30;;
59294;SDS011;45067;44.654;20.200;2023-07-08T04:05:17;21.88;;;13.10;;
59294;SDS011;45067;44.654;20.200;2023-07-08T04:07:44;20.50;;;12.23;;
59294;SDS011;45067;44.654;20.200;2023-07-08T04:10:10;19.98;;;12.38;;
59294;SDS011;45067;44.654;20.200;2023-07-08T04:12:37;14.30;;;9.23;;
59294;SDS011;45067;44.654;20.200;2023-07-08T04:15:04;18.88;;;10.18;;
59294;SDS011;45067;44.654;20.200;2023-07-08T04:17:30;21.20;;;11.65;;
59294;SDS011;45067;44.654;20.200;2023-07-08T04:19:56;16.83;;;10.85;;
59294;SDS011;45067;44.654;20.200;2023-07-08T04:22:22;17.73;;;10.32;;
59294;SDS011;45067;44.654;20.200;2023-07-08T04:24:49;19.00;;;11.02;;
59294;SDS011;45067;44.654;20.200;2023-07-08T04:27:16;16.52;;;10.43;;
59294;SDS011;45067;44.654;20.200;2023-07-08T04:29:43;14.18;;;9.10;;
59294;SDS011;45067;44.654;20.200;2023-07-08T04:34:55;18.13;;;8.60;;
59294;SDS011;45067;44.654;20.200;2023-07-08T04:37:22;15.45;;;8.70;;
59294;SDS011;45067;44.654;20.200;2023-07-08T04:39:48;14.85;;;8.02;;
59294;SDS011;45067;44.654;20.200;2023-07-08T04:42:14;13.25;;;8.40;;
59294;SDS011;45067;44.654;20.200;2023-07-08T04:44:42;16.65;;;8.35;;
59294;SDS011;45067;44.654;20.200;2023-07-08T04:47:08;14.15;;;6.93;;
59294;SDS011;45067;44.654;20.200;2023-07-08T04:49:37;13.07;;;7.25;;
59294;SDS011;45067;44.654;20.200;2023-07-08T04:52:05;11.43;;;7.45;;
59294;SDS011;45067;44.654;20.200;2023-07-08T04:54:32;14.45;;;7.20;;
59294;SDS011;45067;44.654;20.200;2023-07-08T04:56:59;13.75;;;7.22;;
59294;SDS011;45067;44.654;20.200;2023-07-08T04:59:25;12.80;;;7.05;;
59294;SDS011;45067;44.654;20.200;2023-07-08T05:01:54;13.60;;;6.90;;
59294;SDS011;45067;44.654;20.200;2023-07-08T05:04:21;11.48;;;7.32;;
59294;SDS011;45067;44.654;20.200;2023-07-08T05:06:48;12.10;;;7.22;;
59294;SDS011;45067;44.654;20.200;2023-07-08T05:09:14;14.00;;;7.25;;
59294;SDS011;45067;44.654;20.200;2023-07-08T05:11:40;13.63;;;8.13;;
59294;SDS011;45067;44.654;20.200;2023-07-08T05:14:06;13.20;;;7.20;;
59294;SDS011;45067;44.654;20.200;2023-07-08T05:16:44;17.67;;;7.50;;
59294;SDS011;45067;44.654;20.200;2023-07-08T05:19:11;12.52;;;6.57;;
59294;SDS011;45067;44.654;20.200;2023-07-08T05:21:37;15.00;;;6.95;;
59294;SDS011;45067;44.654;20.200;2023-07-08T05:24:03;12.45;;;6.45;;
59294;SDS011;45067;44.654;20.200;2023-07-08T05:26:30;14.50;;;7.15;;
59294;SDS011;45067;44.654;20.200;2023-07-08T05:28:56;12.05;;;6.65;;
59294;SDS011;45067;44.654;20.200;2023-07-08T05:34:25;13.65;;;7.97;;
59294;SDS011;45067;44.654;20.200;2023-07-08T05:36:51;10.93;;;7.05;;
59294;SDS011;45067;44.654;20.200;2023-07-08T05:39:17;13.32;;;7.20;;
59294;SDS011;45067;44.654;20.200;2023-07-08T05:41:44;17.13;;;6.68;;
59294;SDS011;45067;44.654;20.200;2023-07-08T05:44:10;14.10;;;7.07;;
59294;SDS011;45067;44.654;20.200;2023-07-08T05:46:36;11.10;;;6.70;;
59294;SDS011;45067;44.654;20.200;2023-07-08T05:49:03;17.73;;;7.10;;
59294;SDS011;45067;44.654;20.200;2023-07-08T05:51:29;10.75;;;6.15;;
59294;SDS011;45067;44.654;20.200;2023-07-08T05:53:55;11.13;;;6.40;;
59294;SDS011;45067;44.654;20.200;2023-07-08T05:56:22;13.32;;;7.10;;
59294;SDS011;45067;44.654;20.200;2023-07-08T05:58:48;11.93;;;6.50;;
59294;SDS011;45067;44.654;20.200;2023-07-08T06:01:20;11.13;;;7.05;;
59294;SDS011;45067;44.654;20.200;2023-07-08T06:03:46;15.88;;;7.05;;
59294;SDS011;45067;44.654;20.200;2023-07-08T06:06:12;12.90;;;7.10;;
59294;SDS011;45067;44.654;20.200;2023-07-08T06:08:39;12.35;;;7.20;;
59294;SDS011;45067;44.654;20.200;2023-07-08T06:11:05;11.35;;;6.47;;
59294;SDS011;45067;44.654;20.200;2023-07-08T06:13:31;17.73;;;6.70;;
59294;SDS011;45067;44.654;20.200;2023-07-08T06:19:01;9.48;;;6.65;;
59294;SDS011;45067;44.654;20.200;2023-07-08T06:21:27;19.00;;;7.03;;
59294;SDS011;45067;44.654;20.200;2023-07-08T06:23:53;11.30;;;6.60;;
59294;SDS011;45067;44.654;20.200;2023-07-08T06:26:19;12.02;;;6.53;;
59294;SDS011;45067;44.654;20.200;2023-07-08T06:28:45;12.77;;;6.43;;
59294;SDS011;45067;44.654;20.200;2023-07-08T06:31:11;9.75;;;6.03;;
59294;SDS011;45067;44.654;20.200;2023-07-08T06:33:37;9.80;;;5.40;;
59294;SDS011;45067;44.654;20.200;2023-07-08T06:36:03;9.98;;;6.07;;
59294;SDS011;45067;44.654;20.200;2023-07-08T06:38:31;10.10;;;6.15;;
59294;SDS011;45067;44.654;20.200;2023-07-08T06:40:57;11.23;;;5.95;;
59294;SDS011;45067;44.654;20.200;2023-07-08T06:43:24;11.27;;;6.80;;
59294;SDS011;45067;44.654;20.200;2023-07-08T06:45:50;9.88;;;5.78;;
59294;SDS011;45067;44.654;20.200;2023-07-08T06:48:16;10.20;;;5.88;;
59294;SDS011;45067;44.654;20.200;2023-07-08T06:50:45;9.93;;;5.50;;
59294;SDS011;45067;44.654;20.200;2023-07-08T06:53:11;10.65;;;6.30;;
59294;SDS011;45067;44.654;20.200;2023-07-08T06:55:37;8.32;;;5.45;;
59294;SDS011;45067;44.654;20.200;2023-07-08T06:58:03;12.82;;;6.63;;
59294;SDS011;45067;44.654;20.200;2023-07-08T07:00:29;13.18;;;6.22;;
59294;SDS011;45067;44.654;20.200;2023-07-08T07:02:55;9.95;;;5.50;;
59294;SDS011;45067;44.654;20.200;2023-07-08T07:05:21;13.32;;;5.63;;
59294;SDS011;45067;44.654;20.200;2023-07-08T07:07:47;15.90;;;5.97;;
59294;SDS011;45067;44.654;20.200;2023-07-08T07:10:17;10.40;;;5.53;;
59294;SDS011;45067;44.654;20.200;2023-07-08T07:12:43;8.10;;;5.00;;
59294;SDS011;45067;44.654;20.200;2023-07-08T07:15:12;7.88;;;5.03;;
59294;SDS011;45067;44.654;20.200;2023-07-08T07:17:38;8.53;;;5.00;;
59294;SDS011;45067;44.654;20.200;2023-07-08T07:20:07;10.50;;;4.75;;
59294;SDS011;45067;44.654;20.200;2023-07-08T07:22:37;8.23;;;5.00;;
59294;SDS011;45067;44.654;20.200;2023-07-08T07:25:03;8.27;;;4.63;;
59294;SDS011;45067;44.654;20.200;2023-07-08T07:27:32;7.13;;;4.93;;
59294;SDS011;45067;44.654;20.200;2023-07-08T07:29:58;9.73;;;4.60;;
59294;SDS011;45067;44.654;20.200;2023-07-08T07:32:25;10.52;;;5.30;;
59294;SDS011;45067;44.654;20.200;2023-07-08T07:34:51;9.20;;;4.90;;
59294;SDS011;45067;44.654;20.200;2023-07-08T07:37:18;8.38;;;4.50;;
59294;SDS011;45067;44.654;20.200;2023-07-08T07:39:45;8.52;;;4.47;;
59294;SDS011;45067;44.654;20.200;2023-07-08T07:42:11;8.25;;;4.93;;
59294;SDS011;45067;44.654;20.200;2023-07-08T07:44:37;8.13;;;4.93;;
59294;SDS011;45067;44.654;20.200;2023-07-08T07:47:07;12.95;;;6.32;;
59294;SDS011;45067;44.654;20.200;2023-07-08T07:49:34;12.13;;;5.38;;
59294;SDS011;45067;44.654;20.200;2023-07-08T07:52:00;9.10;;;4.65;;
59294;SDS011;45067;44.654;20.200;2023-07-08T07:54:26;10.00;;;4.60;;
59294;SDS011;45067;44.654;20.200;2023-07-08T07:56:53;6.20;;;4.57;;
59294;SDS011;45067;44.654;20.200;2023-07-08T07:59:19;10.07;;;4.70;;
59294;SDS011;45067;44.654;20.200;2023-07-08T08:01:45;7.75;;;4.63;;
59294;SDS011;45067;44.654;20.200;2023-07-08T08:04:11;6.32;;;3.75;;
59294;SDS011;45067;44.654;20.200;2023-07-08T08:06:37;10.80;;;6.65;;
59294;SDS011;45067;44.654;20.200;2023-07-08T08:09:04;10.60;;;5.07;;
59294;SDS011;45067;44.654;20.200;2023-07-08T08:11:31;9.77;;;4.95;;
59294;SDS011;45067;44.654;20.200;2023-07-08T08:13:57;10.85;;;4.72;;
59294;SDS011;45067;44.654;20.200;2023-07-08T08:16:25;9.85;;;4.85;;
59294;SDS011;45067;44.654;20.200;2023-07-08T08:18:51;9.18;;;4.80;;
59294;SDS011;45067;44.654;20.200;2023-07-08T08:21:17;6.75;;;4.40;;
59294;SDS011;45067;44.654;20.200;2023-07-08T08:23:43;9.63;;;4.55;;
59294;SDS011;45067;44.654;20.200;2023-07-08T08:26:09;9.02;;;4.82;;
59294;SDS011;45067;44.654;20.200;2023-07-08T08:28:35;9.05;;;4.60;;
59294;SDS011;45067;44.654;20.200;2023-07-08T08:31:01;11.50;;;5.07;;
59294;SDS011;45067;44.654;20.200;2023-07-08T08:33:27;7.22;;;4.50;;
59294;SDS011;45067;44.654;20.200;2023-07-08T08:35:53;10.80;;;5.07;;
59294;SDS011;45067;44.654;20.200;2023-07-08T08:38:19;6.20;;;4.47;;
59294;SDS011;45067;44.654;20.200;2023-07-08T08:40:45;6.43;;;4.18;;
59294;SDS011;45067;44.654;20.200;2023-07-08T08:43:18;8.85;;;3.80;;
59294;SDS011;45067;44.654;20.200;2023-07-08T08:45:52;5.55;;;3.50;;
59294;SDS011;45067;44.654;20.200;2023-07-08T08:48:19;6.60;;;4.40;;
59294;SDS011;45067;44.654;20.200;2023-07-08T08:50:53;7.90;;;4.28;;
59294;SDS011;45067;44.654;20.200;2023-07-08T08:53:21;8.60;;;4.40;;
59294;SDS011;45067;44.654;20.200;2023-07-08T08:58:39;8.15;;;3.88;;
59294;SDS011;45067;44.654;20.200;2023-07-08T09:01:08;5.53;;;4.07;;
59294;SDS011;45067;44.654;20.200;2023-07-08T09:03:50;8.10;;;4.93;;
59294;SDS011;45067;44.654;20.200;2023-07-08T09:06:27;7.10;;;4.30;;
59294;SDS011;45067;44.654;20.200;2023-07-08T09:08:54;6.25;;;4.03;;
59294;SDS011;45067;44.654;20.200;2023-07-08T09:13:46;7.07;;;4.22;;
59294;SDS011;45067;44.654;20.200;2023-07-08T09:19:00;7.37;;;4.43;;
59294;SDS011;45067;44.654;20.200;2023-07-08T09:21:35;10.05;;;4.47;;
59294;SDS011;45067;44.654;20.200;2023-07-08T09:24:04;6.68;;;4.28;;
59294;SDS011;45067;44.654;20.200;2023-07-08T09:26:34;6.13;;;4.22;;
59294;SDS011;45067;44.654;20.200;2023-07-08T09:29:01;7.70;;;4.50;;
59294;SDS011;45067;44.654;20.200;2023-07-08T09:31:29;5.65;;;4.13;;
59294;SDS011;45067;44.654;20.200;2023-07-08T09:36:31;6.25;;;4.07;;
59294;SDS011;45067;44.654;20.200;2023-07-08T09:38:58;8.90;;;3.72;;
59294;SDS011;45067;44.654;20.200;2023-07-08T09:41:28;6.93;;;4.10;;
59294;SDS011;45067;44.654;20.200;2023-07-08T09:44:02;6.05;;;4.20;;
59294;SDS011;45067;44.654;20.200;2023-07-08T09:46:28;6.60;;;4.07;;
59294;SDS011;45067;44.654;20.200;2023-07-08T09:48:55;6.13;;;3.83;;
59294;SDS011;45067;44.654;20.200;2023-07-08T09:51:22;5.47;;;3.72;;
59294;SDS011;45067;44.654;20.200;2023-07-08T09:53:48;7.30;;;4.00;;
59294;SDS011;45067;44.654;20.200;2023-07-08T09:56:14;7.28;;;3.88;;
59294;SDS011;45067;44.654;20.200;2023-07-08T09:58:41;7.75;;;4.60;;
59294;SDS011;45067;44.654;20.200;2023-07-08T10:01:10;5.63;;;4.07;;
59294;SDS011;45067;44.654;20.200;2023-07-08T10:03:37;8.30;;;4.72;;
59294;SDS011;45067;44.654;20.200;2023-07-08T10:06:04;6.20;;;4.50;;
59294;SDS011;45067;44.654;20.200;2023-07-08T10:08:36;6.18;;;3.90;;
59294;SDS011;45067;44.654;20.200;2023-07-08T10:11:28;6.68;;;4.05;;
59294;SDS011;45067;44.654;20.200;2023-07-08T10:14:20;7.45;;;4.70;;
59294;SDS011;45067;44.654;20.200;2023-07-08T10:16:44;8.17;;;4.60;;
59294;SDS011;45067;44.654;20.200;2023-07-08T10:19:14;8.02;;;5.13;;
59294;SDS011;45067;44.654;20.200;2023-07-08T10:29:36;6.60;;;4.90;;
59294;SDS011;45067;44.654;20.200;2023-07-08T10:35:03;8.85;;;5.80;;
59294;SDS011;45067;44.654;20.200;2023-07-08T10:45:40;7.93;;;4.03;;
59294;SDS011;45067;44.654;20.200;2023-07-08T10:53:35;7.07;;;4.50;;
59294;SDS011;45067;44.654;20.200;2023-07-08T10:56:25;9.00;;;4.03;;
59294;SDS011;45067;44.654;20.200;2023-07-08T11:07:08;5.63;;;3.97;;
59294;SDS011;45067;44.654;20.200;2023-07-08T11:09:39;7.47;;;3.95;;
59294;SDS011;45067;44.654;20.200;2023-07-08T11:12:29;8.10;;;3.65;;
59294;SDS011;45067;44.654;20.200;2023-07-08T11:17:52;7.03;;;3.67;;
59294;SDS011;45067;44.654;20.200;2023-07-08T11:20:22;7.40;;;3.35;;
59294;SDS011;45067;44.654;20.200;2023-07-08T11:23:01;5.25;;;3.45;;
59294;SDS011;45067;44.654;20.200;2023-07-08T11:25:28;5.78;;;3.40;;
59294;SDS011;45067;44.654;20.200;2023-07-08T11:27:56;11.88;;;7.35;;
59294;SDS011;45067;44.654;20.200;2023-07-08T11:30:24;10.18;;;7.15;;
59294;SDS011;45067;44.654;20.200;2023-07-08T11:33:02;9.73;;;5.40;;
59294;SDS011;45067;44.654;20.200;2023-07-08T11:35:40;7.82;;;4.38;;
59294;SDS011;45067;44.654;20.200;2023-07-08T11:38:12;13.68;;;6.97;;
59294;SDS011;45067;44.654;20.200;2023-07-08T11:43:15;12.85;;;8.48;;
59294;SDS011;45067;44.654;20.200;2023-07-08T11:45:42;9.38;;;4.00;;
59294;SDS011;45067;44.654;20.200;2023-07-08T11:48:13;4.93;;;3.80;;
59294;SDS011;45067;44.654;20.200;2023-07-08T11:50:41;8.30;;;4.13;;
59294;SDS011;45067;44.654;20.200;2023-07-08T11:53:09;8.80;;;4.22;;
59294;SDS011;45067;44.654;20.200;2023-07-08T11:55:37;7.47;;;4.07;;
59294;SDS011;45067;44.654;20.200;2023-07-08T11:58:13;8.50;;;3.88;;
59294;SDS011;45067;44.654;20.200;2023-07-08T12:00:41;8.43;;;3.95;;
59294;SDS011;45067;44.654;20.200;2023-07-08T12:03:18;6.93;;;4.30;;
59294;SDS011;45067;44.654;20.200;2023-07-08T12:05:44;8.68;;;4.40;;
59294;SDS011;45067;44.654;20.200;2023-07-08T12:08:12;8.63;;;4.05;;
59294;SDS011;45067;44.654;20.200;2023-07-08T12:10:39;7.45;;;4.50;;
59294;SDS011;45067;44.654;20.200;2023-07-08T12:13:13;11.75;;;6.20;;
59294;SDS011;45067;44.654;20.200;2023-07-08T12:15:40;6.05;;;4.35;;
59294;SDS011;45067;44.654;20.200;2023-07-08T12:20:38;9.85;;;3.97;;
59294;SDS011;45067;44.654;20.200;2023-07-08T12:23:11;7.85;;;3.63;;
59294;SDS011;45067;44.654;20.200;2023-07-08T12:25:37;10.32;;;5.10;;
59294;SDS011;45067;44.654;20.200;2023-07-08T12:28:03;15.40;;;10.25;;
59294;SDS011;45067;44.654;20.200;2023-07-08T12:30:30;8.50;;;6.00;;
59294;SDS011;45067;44.654;20.200;2023-07-08T12:32:57;7.90;;;5.68;;
59294;SDS011;45067;44.654;20.200;2023-07-08T12:35:31;7.47;;;4.70;;
59294;SDS011;45067;44.654;20.200;2023-07-08T12:37:58;5.82;;;3.92;;
59294;SDS011;45067;44.654;20.200;2023-07-08T12:40:26;7.47;;;4.20;;
59294;SDS011;45067;44.654;20.200;2023-07-08T12:45:22;7.35;;;4.65;;
59294;SDS011;45067;44.654;20.200;2023-07-08T12:47:48;6.53;;;3.90;;
59294;SDS011;45067;44.654;20.200;2023-07-08T12:50:15;7.53;;;4.40;;
59294;SDS011;45067;44.654;20.200;2023-07-08T12:52:44;6.22;;;3.88;;
59294;SDS011;45067;44.654;20.200;2023-07-08T12:55:11;13.85;;;8.73;;
59294;SDS011;45067;44.654;20.200;2023-07-08T12:57:39;7.47;;;3.97;;
59294;SDS011;45067;44.654;20.200;2023-07-08T13:00:06;7.97;;;5.05;;
59294;SDS011;45067;44.654;20.200;2023-07-08T13:02:43;6.35;;;4.70;;
59294;SDS011;45067;44.654;20.200;2023-07-08T13:05:10;9.50;;;4.53;;
59294;SDS011;45067;44.654;20.200;2023-07-08T13:07:37;8.25;;;5.25;;
59294;SDS011;45067;44.654;20.200;2023-07-08T13:10:04;7.88;;;5.40;;
59294;SDS011;45067;44.654;20.200;2023-07-08T13:12:31;9.32;;;5.85;;
59294;SDS011;45067;44.654;20.200;2023-07-08T13:15:00;6.93;;;4.80;;
59294;SDS011;45067;44.654;20.200;2023-07-08T13:17:26;11.88;;;4.05;;
59294;SDS011;45067;44.654;20.200;2023-07-08T13:19:52;5.95;;;3.83;;
59294;SDS011;45067;44.654;20.200;2023-07-08T13:22:19;5.80;;;3.55;;
59294;SDS011;45067;44.654;20.200;2023-07-08T13:24:46;6.82;;;4.30;;
59294;SDS011;45067;44.654;20.200;2023-07-08T13:27:23;6.68;;;4.22;;
59294;SDS011;45067;44.654;20.200;2023-07-08T13:29:56;12.88;;;8.07;;
59294;SDS011;45067;44.654;20.200;2023-07-08T13:32:29;18.75;;;13.05;;
59294;SDS011;45067;44.654;20.200;2023-07-08T13:34:56;6.28;;;4.55;;
59294;SDS011;45067;44.654;20.200;2023-07-08T13:37:22;5.88;;;3.90;;
59294;SDS011;45067;44.654;20.200;2023-07-08T13:39:51;10.18;;;3.97;;
59294;SDS011;45067;44.654;20.200;2023-07-08T13:42:18;10.40;;;6.43;;
59294;SDS011;45067;44.654;20.200;2023-07-08T13:44:44;6.93;;;4.40;;
59294;SDS011;45067;44.654;20.200;2023-07-08T13:47:27;7.10;;;3.47;;
59294;SDS011;45067;44.654;20.200;2023-07-08T13:49:55;9.80;;;4.88;;
59294;SDS011;45067;44.654;20.200;2023-07-08T13:52:22;10.25;;;4.53;;
59294;SDS011;45067;44.654;20.200;2023-07-08T13:54:57;8.40;;;4.57;;
59294;SDS011;45067;44.654;20.200;2023-07-08T13:57:28;13.20;;;7.55;;
59294;SDS011;45067;44.654;20.200;2023-07-08T13:59:54;10.43;;;7.05;;
59294;SDS011;45067;44.654;20.200;2023-07-08T14:02:25;5.85;;;3.90;;
59294;SDS011;45067;44.654;20.200;2023-07-08T14:04:52;6.88;;;4.10;;
59294;SDS011;45067;44.654;20.200;2023-07-08T14:07:20;9.98;;;4.65;;
59294;SDS011;45067;44.654;20.200;2023-07-08T14:09:46;5.60;;;3.90;;
59294;SDS011;45067;44.654;20.200;2023-07-08T14:12:12;8.35;;;4.25;;
59294;SDS011;45067;44.654;20.200;2023-07-08T14:14:38;8.23;;;4.03;;
59294;SDS011;45067;44.654;20.200;2023-07-08T14:17:04;11.68;;;4.00;;
59294;SDS011;45067;44.654;20.200;2023-07-08T14:19:32;7.70;;;3.75;;
59294;SDS011;45067;44.654;20.200;2023-07-08T14:22:00;10.82;;;6.35;;
59294;SDS011;45067;44.654;20.200;2023-07-08T14:24:27;6.85;;;4.00;;
59294;SDS011;45067;44.654;20.200;2023-07-08T14:26:53;7.30;;;5.20;;
59294;SDS011;45067;44.654;20.200;2023-07-08T14:29:19;10.43;;;4.47;;
59294;SDS011;45067;44.654;20.200;2023-07-08T14:31:45;9.60;;;4.70;;
59294;SDS011;45067;44.654;20.200;2023-07-08T14:34:17;8.02;;;4.30;;
59294;SDS011;45067;44.654;20.200;2023-07-08T14:36:46;9.23;;;5.03;;
59294;SDS011;45067;44.654;20.200;2023-07-08T14:39:16;9.05;;;4.55;;
59294;SDS011;45067;44.654;20.200;2023-07-08T14:41:43;6.38;;;4.13;;
59294;SDS011;45067;44.654;20.200;2023-07-08T14:44:32;9.73;;;3.83;;
59294;SDS011;45067;44.654;20.200;2023-07-08T14:46:56;8.90;;;5.18;;
59294;SDS011;45067;44.654;20.200;2023-07-08T14:49:23;7.82;;;4.05;;
59294;SDS011;45067;44.654;20.200;2023-07-08T14:51:49;5.97;;;3.80;;
59294;SDS011;45067;44.654;20.200;2023-07-08T14:54:16;7.65;;;3.75;;
59294;SDS011;45067;44.654;20.200;2023-07-08T14:56:43;11.73;;;7.55;;
59294;SDS011;45067;44.654;20.200;2023-07-08T14:59:17;8.52;;;5.47;;
59294;SDS011;45067;44.654;20.200;2023-07-08T15:01:44;6.85;;;3.90;;
59294;SDS011;45067;44.654;20.200;2023-07-08T15:04:11;6.18;;;3.80;;
59294;SDS011;45067;44.654;20.200;2023-07-08T15:06:38;6.63;;;4.05;;
59294;SDS011;45067;44.654;20.200;2023-07-08T15:09:04;7.28;;;4.20;;
59294;SDS011;45067;44.654;20.200;2023-07-08T15:13:59;8.18;;;4.25;;
59294;SDS011;45067;44.654;20.200;2023-07-08T15:16:26;8.25;;;4.10;;
59294;SDS011;45067;44.654;20.200;2023-07-08T15:18:52;5.88;;;3.70;;
59294;SDS011;45067;44.654;20.200;2023-07-08T15:21:18;6.97;;;4.20;;
59294;SDS011;45067;44.654;20.200;2023-07-08T15:23:44;5.45;;;4.15;;
59294;SDS011;45067;44.654;20.200;2023-07-08T15:26:11;10.20;;;4.07;;
59294;SDS011;45067;44.654;20.200;2023-07-08T15:31:04;16.38;;;4.55;;
59294;SDS011;45067;44.654;20.200;2023-07-08T15:33:30;7.45;;;3.72;;
59294;SDS011;45067;44.654;20.200;2023-07-08T15:35:57;6.30;;;3.50;;
59294;SDS011;45067;44.654;20.200;2023-07-08T15:38:23;9.13;;;3.75;;
59294;SDS011;45067;44.654;20.200;2023-07-08T15:40:51;9.80;;;4.20;;
59294;SDS011;45067;44.654;20.200;2023-07-08T15:43:18;15.23;;;4.22;;
59294;SDS011;45067;44.654;20.200;2023-07-08T15:45:45;6.75;;;3.97;;
59294;SDS011;45067;44.654;20.200;2023-07-08T15:48:15;8.68;;;3.88;;
59294;SDS011;45067;44.654;20.200;2023-07-08T15:50:41;9.80;;;3.55;;
59294;SDS011;45067;44.654;20.200;2023-07-08T15:53:08;7.40;;;4.07;;
59294;SDS011;45067;44.654;20.200;2023-07-08T15:55:34;11.68;;;4.43;;
59294;SDS011;45067;44.654;20.200;2023-07-08T15:58:03;8.20;;;3.90;;
59294;SDS011;45067;44.654;20.200;2023-07-08T16:00:30;8.13;;;3.88;;
59294;SDS011;45067;44.654;20.200;2023-07-08T16:02:58;7.43;;;4.10;;